<?xml version='1.0' encoding='UTF-8'?><gpx version="1.1" creator="JPX - https://github.com/jenetics/jpx" xmlns="http://www.topografix.com/GPX/1/1"><trk><trkseg><trkpt lat="41.739904811537315" lon="12.714099354315024"><ele>710.0</ele><time>2026-04-07T12:16:28.998Z</time></trkpt><trkpt lat="41.73990211431314" lon="12.714007293338515"><ele>710.0</ele><time>2026-04-07T12:16:35.999Z</time></trkpt><trkpt lat="41.73990703384609" lon="12.713916315690236"><ele>710.0</ele><time>2026-04-07T12:16:42.999Z</time></trkpt><trkpt lat="41.73987185432398" lon="12.713835277884757"><ele>710.0</ele><time>2026-04-07T12:16:50.999Z</time></trkpt><trkpt lat="41.73987514959287" lon="12.713747575437955"><ele>710.0</ele><time>2026-04-07T12:16:55.999Z</time></trkpt><trkpt lat="41.7398533791449" lon="12.71365590479154"><ele>710.0</ele><time>2026-04-07T12:17:01.999Z</time></trkpt><trkpt lat="41.739816959229614" lon="12.71356111316793"><ele>710.0</ele><time>2026-04-07T12:17:10Z</time></trkpt><trkpt lat="41.73980351270565" lon="12.713468296944505"><ele>709.5714285714286</ele><time>2026-04-07T12:17:17Z</time></trkpt><trkpt lat="41.73979186296983" lon="12.713375720791689"><ele>709.1428571428571</ele><time>2026-04-07T12:17:24Z</time></trkpt><trkpt lat="41.739790669223524" lon="12.713276113090954"><ele>708.7142857142858</ele><time>2026-04-07T12:17:30Z</time></trkpt><trkpt lat="41.73972299583747" lon="12.713236302769776"><ele>708.2857142857142</ele><time>2026-04-07T12:17:38Z</time></trkpt><trkpt lat="41.73968720778625" lon="12.713160670375697"><ele>707.8571428571429</ele><time>2026-04-07T12:17:45Z</time></trkpt><trkpt lat="41.73964126781558" lon="12.713094346622151"><ele>707.4285714285714</ele><time>2026-04-07T12:17:51Z</time></trkpt><trkpt lat="41.739632866941285" lon="12.713009997528008"><ele>707.0</ele><time>2026-04-07T12:17:58Z</time></trkpt><trkpt lat="41.739676791148106" lon="12.712942876017802"><ele>707.0</ele><time>2026-04-07T12:18:04Z</time></trkpt><trkpt lat="41.7396944531424" lon="12.712851942869662"><ele>707.0</ele><time>2026-04-07T12:18:10Z</time></trkpt><trkpt lat="41.73969827450341" lon="12.712764635309714"><ele>707.0</ele><time>2026-04-07T12:18:15.996Z</time></trkpt><trkpt lat="41.73962986779616" lon="12.71273409459021"><ele>707.0</ele><time>2026-04-07T12:18:22.997Z</time></trkpt><trkpt lat="41.73958748297459" lon="12.712660383762554"><ele>707.0</ele><time>2026-04-07T12:18:28.997Z</time></trkpt><trkpt lat="41.73954880450668" lon="12.712589261413827"><ele>707.0</ele><time>2026-04-07T12:18:34.998Z</time></trkpt><trkpt lat="41.73948630797097" lon="12.712616738444753"><ele>707.0</ele><time>2026-04-07T12:18:41.999Z</time></trkpt><trkpt lat="41.73943094976214" lon="12.712659442182037"><ele>705.3333333333333</ele><time>2026-04-07T12:18:46.999Z</time></trkpt><trkpt lat="41.73937149991841" lon="12.712698284483698"><ele>703.6666666666666</ele><time>2026-04-07T12:18:52.999Z</time></trkpt><trkpt lat="41.739325666582495" lon="12.712625486893877"><ele>702.0</ele><time>2026-04-07T12:18:57.999Z</time></trkpt><trkpt lat="41.73927909604405" lon="12.712536598539584"><ele>700.3333333333334</ele><time>2026-04-07T12:19:06Z</time></trkpt><trkpt lat="41.739213603894385" lon="12.712510540387482"><ele>698.6666666666667</ele><time>2026-04-07T12:19:12Z</time></trkpt><trkpt lat="41.73912516730355" lon="12.712439649364502"><ele>697.0</ele><time>2026-04-07T12:20:18.002Z</time></trkpt><trkpt lat="41.739190695653804" lon="12.712459689870531"><ele>697.0</ele><time>2026-04-07T12:20:43Z</time></trkpt><trkpt lat="41.73912546774697" lon="12.712422738105696"><ele>697.0</ele><time>2026-04-07T12:20:58Z</time></trkpt><trkpt lat="41.73914549250149" lon="12.712328353959851"><ele>697.0</ele><time>2026-04-07T12:21:06Z</time></trkpt><trkpt lat="41.739086649001024" lon="12.712278147567678"><ele>697.0</ele><time>2026-04-07T12:21:16.001Z</time></trkpt><trkpt lat="41.739021545938016" lon="12.712246176236153"><ele>697.0</ele><time>2026-04-07T12:21:22.001Z</time></trkpt><trkpt lat="41.73896014748441" lon="12.712198147399508"><ele>697.0</ele><time>2026-04-07T12:21:29.001Z</time></trkpt><trkpt lat="41.738900567919664" lon="12.71214544619363"><ele>697.0</ele><time>2026-04-07T12:21:36.001Z</time></trkpt><trkpt lat="41.73888021511398" lon="12.712062986644415"><ele>697.0</ele><time>2026-04-07T12:21:41.001Z</time></trkpt><trkpt lat="41.73889349479096" lon="12.711970112619403"><ele>697.0</ele><time>2026-04-07T12:21:47.002Z</time></trkpt><trkpt lat="41.73890024548103" lon="12.711884866045102"><ele>697.0</ele><time>2026-04-07T12:21:52.002Z</time></trkpt><trkpt lat="41.738875635579866" lon="12.711805553744506"><ele>697.0</ele><time>2026-04-07T12:21:58.002Z</time></trkpt><trkpt lat="41.73884129943828" lon="12.711721306639731"><ele>697.0</ele><time>2026-04-07T12:22:03.002Z</time></trkpt><trkpt lat="41.73886047609249" lon="12.71163263404779"><ele>697.0</ele><time>2026-04-07T12:22:09.002Z</time></trkpt><trkpt lat="41.73888639568902" lon="12.711555187108358"><ele>697.0</ele><time>2026-04-07T12:22:15.002Z</time></trkpt><trkpt lat="41.73892440076681" lon="12.711474647104223"><ele>696.2857142857143</ele><time>2026-04-07T12:22:21.003Z</time></trkpt><trkpt lat="41.73891964917091" lon="12.711389905134693"><ele>695.5714285714286</ele><time>2026-04-07T12:22:25.998Z</time></trkpt><trkpt lat="41.73892520559286" lon="12.711285625026704"><ele>694.8571428571429</ele><time>2026-04-07T12:22:31.998Z</time></trkpt><trkpt lat="41.738918895791876" lon="12.71118804846856"><ele>694.1428571428571</ele><time>2026-04-07T12:22:37.999Z</time></trkpt><trkpt lat="41.738924010758225" lon="12.711097801353924"><ele>693.4285714285714</ele><time>2026-04-07T12:22:42.999Z</time></trkpt><trkpt lat="41.738923173342755" lon="12.711001830967948"><ele>692.7142857142857</ele><time>2026-04-07T12:22:48.999Z</time></trkpt><trkpt lat="41.738912377057936" lon="12.710912321614451"><ele>692.0</ele><time>2026-04-07T12:22:56Z</time></trkpt><trkpt lat="41.738908390255276" lon="12.710822282461978"><ele>690.1428571428571</ele><time>2026-04-07T12:23:03Z</time></trkpt><trkpt lat="41.73890179856678" lon="12.710730339748297"><ele>688.2857142857143</ele><time>2026-04-07T12:23:08Z</time></trkpt><trkpt lat="41.73890299498179" lon="12.710640207513901"><ele>686.4285714285714</ele><time>2026-04-07T12:23:14Z</time></trkpt><trkpt lat="41.738924865648" lon="12.710549380398687"><ele>684.5714285714286</ele><time>2026-04-07T12:23:20.001Z</time></trkpt><trkpt lat="41.73894332573324" lon="12.710461440603048"><ele>682.7142857142858</ele><time>2026-04-07T12:23:25.001Z</time></trkpt><trkpt lat="41.73895821822739" lon="12.710377142131499"><ele>680.8571428571429</ele><time>2026-04-07T12:23:31.001Z</time></trkpt><trkpt lat="41.73894161118862" lon="12.710291229335287"><ele>679.0</ele><time>2026-04-07T12:23:36.001Z</time></trkpt><trkpt lat="41.73894837978437" lon="12.710192172438507"><ele>677.4285714285714</ele><time>2026-04-07T12:23:42.001Z</time></trkpt><trkpt lat="41.739002374380135" lon="12.710146673194702"><ele>675.8571428571429</ele><time>2026-04-07T12:23:47.001Z</time></trkpt><trkpt lat="41.73903658243636" lon="12.710064462071799"><ele>674.2857142857142</ele><time>2026-04-07T12:23:52.002Z</time></trkpt><trkpt lat="41.73908320582963" lon="12.709990134904796"><ele>672.7142857142858</ele><time>2026-04-07T12:23:58.002Z</time></trkpt><trkpt lat="41.73913281931499" lon="12.709932451332655"><ele>671.1428571428571</ele><time>2026-04-07T12:24:04.002Z</time></trkpt><trkpt lat="41.73918199942933" lon="12.709867022009712"><ele>669.5714285714286</ele><time>2026-04-07T12:24:10.002Z</time></trkpt><trkpt lat="41.73921018482701" lon="12.709778476746619"><ele>668.0</ele><time>2026-04-07T12:24:16.002Z</time></trkpt><trkpt lat="41.73926377222391" lon="12.709710651698934"><ele>668.0</ele><time>2026-04-07T12:24:22.002Z</time></trkpt><trkpt lat="41.73931381335162" lon="12.709648891118121"><ele>668.0</ele><time>2026-04-07T12:24:28.003Z</time></trkpt><trkpt lat="41.739296922002126" lon="12.709559530349187"><ele>668.0</ele><time>2026-04-07T12:24:34.999Z</time></trkpt><trkpt lat="41.739280339270195" lon="12.709474894625346"><ele>668.0</ele><time>2026-04-07T12:24:41Z</time></trkpt><trkpt lat="41.739269034991224" lon="12.7093839565506"><ele>668.0</ele><time>2026-04-07T12:24:47Z</time></trkpt><trkpt lat="41.739240539837276" lon="12.709296534921119"><ele>668.0</ele><time>2026-04-07T12:24:54Z</time></trkpt><trkpt lat="41.739268924351904" lon="12.70921774871656"><ele>668.0</ele><time>2026-04-07T12:25:00Z</time></trkpt><trkpt lat="41.739276549110905" lon="12.709121287395217"><ele>666.7142857142857</ele><time>2026-04-07T12:25:06.001Z</time></trkpt><trkpt lat="41.739339990200136" lon="12.709149498366267"><ele>665.4285714285714</ele><time>2026-04-07T12:25:11.001Z</time></trkpt><trkpt lat="41.73939543173909" lon="12.709097274998607"><ele>664.1428571428571</ele><time>2026-04-07T12:25:18.001Z</time></trkpt><trkpt lat="41.73944833737077" lon="12.709030635980534"><ele>662.8571428571429</ele><time>2026-04-07T12:25:25.001Z</time></trkpt><trkpt lat="41.739500877280975" lon="12.70898272177283"><ele>661.5714285714286</ele><time>2026-04-07T12:25:32.001Z</time></trkpt><trkpt lat="41.73955752081346" lon="12.708938735778249"><ele>660.2857142857143</ele><time>2026-04-07T12:25:40.002Z</time></trkpt><trkpt lat="41.73954634396575" lon="12.7088362592193"><ele>659.0</ele><time>2026-04-07T12:25:48.002Z</time></trkpt><trkpt lat="41.73952520518016" lon="12.708735276917096"><ele>657.8571428571429</ele><time>2026-04-07T12:25:55.002Z</time></trkpt><trkpt lat="41.73949159698039" lon="12.708660886677023"><ele>656.7142857142857</ele><time>2026-04-07T12:26:01.002Z</time></trkpt><trkpt lat="41.739456198475885" lon="12.708590403540262"><ele>655.5714285714286</ele><time>2026-04-07T12:26:07.002Z</time></trkpt><trkpt lat="41.739412223273945" lon="12.708510714610306"><ele>654.4285714285714</ele><time>2026-04-07T12:26:12.003Z</time></trkpt><trkpt lat="41.73937923143413" lon="12.708432204087096"><ele>653.2857142857142</ele><time>2026-04-07T12:26:19.003Z</time></trkpt><trkpt lat="41.739352943065484" lon="12.708349310390329"><ele>652.1428571428571</ele><time>2026-04-07T12:26:25.003Z</time></trkpt><trkpt lat="41.73932916289849" lon="12.708260105796223"><ele>651.0</ele><time>2026-04-07T12:26:31.003Z</time></trkpt><trkpt lat="41.73930162027864" lon="12.708172910639636"><ele>650.5714285714286</ele><time>2026-04-07T12:26:37.003Z</time></trkpt><trkpt lat="41.739364943889676" lon="12.708238791362183"><ele>650.1428571428571</ele><time>2026-04-07T12:27:32.001Z</time></trkpt><trkpt lat="41.739303776223956" lon="12.70819221664487"><ele>649.7142857142858</ele><time>2026-04-07T12:28:13.002Z</time></trkpt><trkpt lat="41.739274847687945" lon="12.708115387070109"><ele>649.2857142857142</ele><time>2026-04-07T12:28:27.003Z</time></trkpt><trkpt lat="41.73921462482938" lon="12.708072926073504"><ele>648.8571428571429</ele><time>2026-04-07T12:28:34.003Z</time></trkpt><trkpt lat="41.739166066069075" lon="12.708009304144946"><ele>648.4285714285714</ele><time>2026-04-07T12:28:40.003Z</time></trkpt><trkpt lat="41.7391094672995" lon="12.70795174982789"><ele>648.0</ele><time>2026-04-07T12:28:47.001Z</time></trkpt><trkpt lat="41.739046333755994" lon="12.707926656928839"><ele>648.0</ele><time>2026-04-07T12:28:53Z</time></trkpt><trkpt lat="41.738985794534024" lon="12.707901088416872"><ele>648.0</ele><time>2026-04-07T12:28:59Z</time></trkpt><trkpt lat="41.73891747258363" lon="12.70789232019324"><ele>648.0</ele><time>2026-04-07T12:29:05.001Z</time></trkpt><trkpt lat="41.73885360449236" lon="12.707882237627691"><ele>648.0</ele><time>2026-04-07T12:29:10.001Z</time></trkpt><trkpt lat="41.73878528584274" lon="12.707858843046576"><ele>648.0</ele><time>2026-04-07T12:29:16.001Z</time></trkpt><trkpt lat="41.73871532042175" lon="12.707863997267685"><ele>648.0</ele><time>2026-04-07T12:29:22.001Z</time></trkpt><trkpt lat="41.7386482516971" lon="12.707866196423472"><ele>648.0</ele><time>2026-04-07T12:29:28.001Z</time></trkpt><trkpt lat="41.738582712597406" lon="12.707851104309112"><ele>647.7142857142858</ele><time>2026-04-07T12:29:33.001Z</time></trkpt><trkpt lat="41.73851592557429" lon="12.707877754778103"><ele>647.4285714285714</ele><time>2026-04-07T12:29:39.001Z</time></trkpt><trkpt lat="41.73847669227507" lon="12.707949701604413"><ele>647.1428571428571</ele><time>2026-04-07T12:29:47.001Z</time></trkpt><trkpt lat="41.73843579864421" lon="12.708015070923729"><ele>646.8571428571429</ele><time>2026-04-07T12:29:53.002Z</time></trkpt><trkpt lat="41.73839728265555" lon="12.708091449111286"><ele>646.5714285714286</ele><time>2026-04-07T12:29:59.002Z</time></trkpt><trkpt lat="41.73836195797692" lon="12.708166529627022"><ele>646.2857142857143</ele><time>2026-04-07T12:30:05.002Z</time></trkpt><trkpt lat="41.738327563961796" lon="12.708258512171515"><ele>646.0</ele><time>2026-04-07T12:30:10.002Z</time></trkpt><trkpt lat="41.73827684748186" lon="12.708329005372873"><ele>646.0</ele><time>2026-04-07T12:30:18.002Z</time></trkpt><trkpt lat="41.73821839492131" lon="12.708393480522654"><ele>646.0</ele><time>2026-04-07T12:30:24.002Z</time></trkpt><trkpt lat="41.73815269404441" lon="12.70845362076715"><ele>646.0</ele><time>2026-04-07T12:30:30.002Z</time></trkpt><trkpt lat="41.73809594025497" lon="12.70850452607905"><ele>646.0</ele><time>2026-04-07T12:30:36.003Z</time></trkpt><trkpt lat="41.7380250930292" lon="12.70855980916305"><ele>646.0</ele><time>2026-04-07T12:30:42.003Z</time></trkpt><trkpt lat="41.73795090539562" lon="12.708591408111863"><ele>646.0</ele><time>2026-04-07T12:30:50.002Z</time></trkpt><trkpt lat="41.73788246295845" lon="12.708624559378025"><ele>646.5714285714287</ele><time>2026-04-07T12:30:56.002Z</time></trkpt><trkpt lat="41.737811965479445" lon="12.708650373352883"><ele>647.1428571428571</ele><time>2026-04-07T12:31:01.001Z</time></trkpt><trkpt lat="41.73774588057609" lon="12.70864750917946"><ele>647.7142857142858</ele><time>2026-04-07T12:31:07.001Z</time></trkpt><trkpt lat="41.73769701426658" lon="12.708709511773556"><ele>648.2857142857143</ele><time>2026-04-07T12:31:14.001Z</time></trkpt><trkpt lat="41.73764691294225" lon="12.70877892362976"><ele>648.8571428571429</ele><time>2026-04-07T12:31:21.001Z</time></trkpt><trkpt lat="41.73759321097921" lon="12.708828420106515"><ele>649.4285714285714</ele><time>2026-04-07T12:31:27.001Z</time></trkpt><trkpt lat="41.737535670001705" lon="12.70886880321117"><ele>650.0</ele><time>2026-04-07T12:31:34.001Z</time></trkpt><trkpt lat="41.73747077213534" lon="12.708898031768546"><ele>650.0</ele><time>2026-04-07T12:31:40.001Z</time></trkpt><trkpt lat="41.737402155002314" lon="12.708909944906276"><ele>650.0</ele><time>2026-04-07T12:31:47.001Z</time></trkpt><trkpt lat="41.7373315149369" lon="12.708911306983309"><ele>650.0</ele><time>2026-04-07T12:31:53.001Z</time></trkpt><trkpt lat="41.73727771407176" lon="12.708866203854935"><ele>650.0</ele><time>2026-04-07T12:32:00.001Z</time></trkpt><trkpt lat="41.73723928279169" lon="12.708798579628677"><ele>650.0</ele><time>2026-04-07T12:32:05.001Z</time></trkpt><trkpt lat="41.737197087396034" lon="12.708711746283853"><ele>650.0</ele><time>2026-04-07T12:32:12.002Z</time></trkpt><trkpt lat="41.73716046624728" lon="12.70863978015745"><ele>650.0</ele><time>2026-04-07T12:32:17.002Z</time></trkpt><trkpt lat="41.73711100030944" lon="12.708567923545507"><ele>640.0</ele><time>2026-04-07T12:32:23.002Z</time></trkpt><trkpt lat="41.73704480748381" lon="12.708517413790709"><ele>640.0</ele><time>2026-04-07T12:32:29.002Z</time></trkpt><trkpt lat="41.73698253764627" lon="12.708532490513818"><ele>640.0</ele><time>2026-04-07T12:32:38.002Z</time></trkpt><trkpt lat="41.73692091832384" lon="12.70848341700599"><ele>640.0</ele><time>2026-04-07T12:32:48.002Z</time></trkpt><trkpt lat="41.73684235301743" lon="12.708422874787601"><ele>639.0</ele><time>2026-04-07T12:32:53.002Z</time></trkpt><trkpt lat="41.736778201597126" lon="12.708368979330325"><ele>639.0</ele><time>2026-04-07T12:32:59.001Z</time></trkpt><trkpt lat="41.73673814700547" lon="12.70830205380404"><ele>639.0</ele><time>2026-04-07T12:33:05.001Z</time></trkpt></trkseg></trk></gpx>